< Typhoon 196421 1964 Season Typhoon 196423 >
Typhoon 196422 (BILLIE)
General InformationTrack Information on Google Maps || Disaster Info.ResourceGoogle EarthGE AnimationAtom FeedGeoJSON
Detalied Best Track (Time Zone = UTC)
Year Month Day Hour Lat. Long. Pressure (hPa) Wind (kt) Class Image Chart
1964 9 24 18 12.4 141.9 1006 0 2 -- Chart
1964 9 25 00 12.4 141.2 1006 0 2 -- Chart
1964 9 25 06 12.4 140.5 1004 0 2 -- Chart
1964 9 25 12 12.4 139.8 1004 0 2 -- Chart
1964 9 25 18 12.3 139.0 1004 0 2 -- Chart
1964 9 26 00 12.5 138.0 1004 0 2 -- Chart
1964 9 26 06 13.0 137.0 1004 0 2 -- Chart
1964 9 26 12 13.7 136.3 1002 0 2 -- Chart
1964 9 26 18 14.4 135.5 1002 0 2 -- Chart
1964 9 27 00 14.8 133.9 1002 0 2 -- Chart
1964 9 27 06 14.5 131.6 1002 0 2 -- Chart
1964 9 27 12 13.9 130.3 1002 0 2 -- Chart
1964 9 27 18 13.5 129.5 1000 0 2 -- Chart
1964 9 28 00 12.9 128.6 1000 0 2 -- Chart
1964 9 28 06 12.7 127.7 1000 0 2 -- Chart
1964 9 28 12 13.5 125.9 1002 0 2 -- Chart
1964 9 28 18 13.8 123.6 1002 0 2 -- Chart
1964 9 29 00 13.8 121.7 1000 0 2 -- Chart
1964 9 29 06 15.7 119.8 998 0 2 -- Chart
1964 9 29 12 15.8 118.3 998 0 9 -- Chart
1964 9 29 18 16.1 116.8 996 0 9 -- Chart
1964 9 30 00 17.0 115.5 994 0 9 -- Chart
1964 9 30 06 17.3 113.6 994 0 9 -- Chart
1964 9 30 12 17.6 111.9 994 0 9 -- Chart
1964 9 30 18 17.8 110.2 994 0 9 -- Chart
1964 10 1 00 18.0 108.2 994 0 9 -- Chart
1964 10 1 06 17.5 107.4 1000 0 2 -- Chart
1964 10 1 12 17.0 107.0 1000 0 2 -- Chart
1964 10 1 18 16.7 106.5 1004 0 2 -- Chart
1964 10 2 00 17.0 106.0 1004 0 2 -- Chart
1964 10 2 06 17.0 105.0 1004 0 2 -- Chart
Japan Meteorological Agency Best Track Data | Correction Date : 1989-06-01
< Typhoon 196421 1964 Season Typhoon 196423 >

Help